sensor_id;sensor_type;location;lat;lon;timestamp;P1;durP1;ratioP1;P2;durP2;ratioP2
17832;SDS011;9041;49.718;21.798;2024-02-15T00:01:51;28.17;;;11.23;;
17832;SDS011;9041;49.718;21.798;2024-02-15T00:04:17;27.03;;;11.70;;
17832;SDS011;9041;49.718;21.798;2024-02-15T00:06:44;26.97;;;11.30;;
17832;SDS011;9041;49.718;21.798;2024-02-15T00:09:10;25.70;;;9.80;;
17832;SDS011;9041;49.718;21.798;2024-02-15T00:11:38;27.03;;;8.73;;
17832;SDS011;9041;49.718;21.798;2024-02-15T00:14:05;25.93;;;11.07;;
17832;SDS011;9041;49.718;21.798;2024-02-15T00:16:33;22.47;;;10.20;;
17832;SDS011;9041;49.718;21.798;2024-02-15T00:19:00;23.13;;;10.27;;
17832;SDS011;9041;49.718;21.798;2024-02-15T00:21:28;25.70;;;11.20;;
17832;SDS011;9041;49.718;21.798;2024-02-15T00:23:54;26.40;;;10.77;;
17832;SDS011;9041;49.718;21.798;2024-02-15T00:26:22;28.23;;;11.13;;
17832;SDS011;9041;49.718;21.798;2024-02-15T00:28:50;24.83;;;10.90;;
17832;SDS011;9041;49.718;21.798;2024-02-15T00:31:17;33.97;;;12.13;;
17832;SDS011;9041;49.718;21.798;2024-02-15T00:33:44;31.87;;;12.00;;
17832;SDS011;9041;49.718;21.798;2024-02-15T00:36:10;28.67;;;12.47;;
17832;SDS011;9041;49.718;21.798;2024-02-15T00:38:37;30.63;;;12.70;;
17832;SDS011;9041;49.718;21.798;2024-02-15T00:41:04;23.83;;;10.77;;
17832;SDS011;9041;49.718;21.798;2024-02-15T00:43:33;24.37;;;10.07;;
17832;SDS011;9041;49.718;21.798;2024-02-15T00:46:02;21.60;;;10.70;;
17832;SDS011;9041;49.718;21.798;2024-02-15T00:48:30;21.67;;;9.10;;
17832;SDS011;9041;49.718;21.798;2024-02-15T00:50:56;15.40;;;7.17;;
17832;SDS011;9041;49.718;21.798;2024-02-15T00:53:23;18.10;;;8.73;;
17832;SDS011;9041;49.718;21.798;2024-02-15T00:55:51;19.57;;;8.70;;
17832;SDS011;9041;49.718;21.798;2024-02-15T00:58:17;16.10;;;7.60;;
17832;SDS011;9041;49.718;21.798;2024-02-15T01:00:44;21.37;;;7.83;;
17832;SDS011;9041;49.718;21.798;2024-02-15T01:03:12;19.50;;;8.90;;
17832;SDS011;9041;49.718;21.798;2024-02-15T01:05:39;17.90;;;7.50;;
17832;SDS011;9041;49.718;21.798;2024-02-15T01:08:05;18.43;;;8.07;;
17832;SDS011;9041;49.718;21.798;2024-02-15T01:10:33;19.10;;;7.37;;
17832;SDS011;9041;49.718;21.798;2024-02-15T01:13:01;15.47;;;8.07;;
17832;SDS011;9041;49.718;21.798;2024-02-15T01:15:29;18.30;;;7.67;;
17832;SDS011;9041;49.718;21.798;2024-02-15T01:17:55;14.40;;;7.17;;
17832;SDS011;9041;49.718;21.798;2024-02-15T01:20:23;18.00;;;7.77;;
17832;SDS011;9041;49.718;21.798;2024-02-15T01:22:50;17.37;;;7.70;;
17832;SDS011;9041;49.718;21.798;2024-02-15T01:25:16;17.43;;;7.87;;
17832;SDS011;9041;49.718;21.798;2024-02-15T01:27:43;14.83;;;7.43;;
17832;SDS011;9041;49.718;21.798;2024-02-15T01:30:10;15.43;;;7.43;;
17832;SDS011;9041;49.718;21.798;2024-02-15T01:32:37;17.50;;;7.27;;
17832;SDS011;9041;49.718;21.798;2024-02-15T01:35:07;16.43;;;8.03;;
17832;SDS011;9041;49.718;21.798;2024-02-15T01:37:36;20.57;;;8.20;;
17832;SDS011;9041;49.718;21.798;2024-02-15T01:40:04;17.87;;;7.23;;
17832;SDS011;9041;49.718;21.798;2024-02-15T01:42:32;17.30;;;7.30;;
17832;SDS011;9041;49.718;21.798;2024-02-15T01:44:59;19.60;;;7.27;;
17832;SDS011;9041;49.718;21.798;2024-02-15T01:47:26;12.97;;;6.73;;
17832;SDS011;9041;49.718;21.798;2024-02-15T01:49:53;14.27;;;6.67;;
17832;SDS011;9041;49.718;21.798;2024-02-15T01:52:19;13.20;;;6.03;;
17832;SDS011;9041;49.718;21.798;2024-02-15T01:54:48;14.10;;;5.80;;
17832;SDS011;9041;49.718;21.798;2024-02-15T01:57:15;12.60;;;5.90;;
17832;SDS011;9041;49.718;21.798;2024-02-15T01:59:42;12.97;;;6.37;;
17832;SDS011;9041;49.718;21.798;2024-02-15T02:02:10;18.57;;;7.97;;
17832;SDS011;9041;49.718;21.798;2024-02-15T02:04:37;11.00;;;5.77;;
17832;SDS011;9041;49.718;21.798;2024-02-15T02:07:04;16.23;;;7.93;;
17832;SDS011;9041;49.718;21.798;2024-02-15T02:09:31;17.93;;;7.67;;
17832;SDS011;9041;49.718;21.798;2024-02-15T02:11:58;15.67;;;7.40;;
17832;SDS011;9041;49.718;21.798;2024-02-15T02:14:26;14.07;;;7.53;;
17832;SDS011;9041;49.718;21.798;2024-02-15T02:16:52;14.17;;;6.97;;
17832;SDS011;9041;49.718;21.798;2024-02-15T02:19:20;14.70;;;6.10;;
17832;SDS011;9041;49.718;21.798;2024-02-15T02:21:47;15.93;;;6.57;;
17832;SDS011;9041;49.718;21.798;2024-02-15T02:24:18;12.57;;;6.17;;
17832;SDS011;9041;49.718;21.798;2024-02-15T02:26:49;12.70;;;6.50;;
17832;SDS011;9041;49.718;21.798;2024-02-15T02:29:16;13.43;;;6.83;;
17832;SDS011;9041;49.718;21.798;2024-02-15T02:31:43;14.70;;;6.30;;
17832;SDS011;9041;49.718;21.798;2024-02-15T02:34:10;18.67;;;9.13;;
17832;SDS011;9041;49.718;21.798;2024-02-15T02:36:38;17.40;;;9.07;;
17832;SDS011;9041;49.718;21.798;2024-02-15T02:39:05;15.20;;;7.87;;
17832;SDS011;9041;49.718;21.798;2024-02-15T02:41:32;13.60;;;7.53;;
17832;SDS011;9041;49.718;21.798;2024-02-15T02:44:00;19.73;;;10.17;;
17832;SDS011;9041;49.718;21.798;2024-02-15T02:46:27;21.30;;;9.23;;
17832;SDS011;9041;49.718;21.798;2024-02-15T02:48:53;17.30;;;8.93;;
17832;SDS011;9041;49.718;21.798;2024-02-15T02:51:20;20.57;;;9.27;;
17832;SDS011;9041;49.718;21.798;2024-02-15T02:53:46;16.67;;;7.87;;
17832;SDS011;9041;49.718;21.798;2024-02-15T02:56:13;14.10;;;6.17;;
17832;SDS011;9041;49.718;21.798;2024-02-15T02:58:40;13.27;;;6.67;;
17832;SDS011;9041;49.718;21.798;2024-02-15T03:01:09;12.50;;;5.93;;
17832;SDS011;9041;49.718;21.798;2024-02-15T03:03:38;12.70;;;6.13;;
17832;SDS011;9041;49.718;21.798;2024-02-15T03:06:04;13.77;;;7.23;;
17832;SDS011;9041;49.718;21.798;2024-02-15T03:08:31;11.87;;;5.57;;
17832;SDS011;9041;49.718;21.798;2024-02-15T03:10:59;13.87;;;8.00;;
17832;SDS011;9041;49.718;21.798;2024-02-15T03:13:25;12.10;;;6.50;;
17832;SDS011;9041;49.718;21.798;2024-02-15T03:15:52;17.07;;;8.40;;
17832;SDS011;9041;49.718;21.798;2024-02-15T03:18:20;15.30;;;8.23;;
17832;SDS011;9041;49.718;21.798;2024-02-15T03:20:49;11.53;;;6.37;;
17832;SDS011;9041;49.718;21.798;2024-02-15T03:23:16;12.37;;;6.17;;
17832;SDS011;9041;49.718;21.798;2024-02-15T03:25:43;11.83;;;5.80;;
17832;SDS011;9041;49.718;21.798;2024-02-15T03:28:09;9.80;;;5.00;;
17832;SDS011;9041;49.718;21.798;2024-02-15T03:30:36;10.67;;;5.13;;
17832;SDS011;9041;49.718;21.798;2024-02-15T03:33:03;9.57;;;5.07;;
17832;SDS011;9041;49.718;21.798;2024-02-15T03:35:32;9.43;;;4.50;;
17832;SDS011;9041;49.718;21.798;2024-02-15T03:37:59;11.73;;;5.00;;
17832;SDS011;9041;49.718;21.798;2024-02-15T03:40:25;11.10;;;5.43;;
17832;SDS011;9041;49.718;21.798;2024-02-15T03:42:52;12.93;;;4.97;;
17832;SDS011;9041;49.718;21.798;2024-02-15T03:45:19;11.03;;;5.30;;
17832;SDS011;9041;49.718;21.798;2024-02-15T03:47:46;11.77;;;4.90;;
17832;SDS011;9041;49.718;21.798;2024-02-15T03:50:14;11.53;;;5.73;;
17832;SDS011;9041;49.718;21.798;2024-02-15T03:52:42;10.43;;;5.37;;
17832;SDS011;9041;49.718;21.798;2024-02-15T03:55:09;14.67;;;5.93;;
17832;SDS011;9041;49.718;21.798;2024-02-15T03:57:37;16.03;;;6.73;;
17832;SDS011;9041;49.718;21.798;2024-02-15T04:00:05;17.53;;;7.00;;
17832;SDS011;9041;49.718;21.798;2024-02-15T04:02:36;14.87;;;7.07;;
17832;SDS011;9041;49.718;21.798;2024-02-15T04:05:05;16.37;;;6.73;;
17832;SDS011;9041;49.718;21.798;2024-02-15T04:07:34;11.53;;;6.07;;
17832;SDS011;9041;49.718;21.798;2024-02-15T04:10:03;13.73;;;6.80;;
17832;SDS011;9041;49.718;21.798;2024-02-15T04:12:31;20.03;;;9.10;;
17832;SDS011;9041;49.718;21.798;2024-02-15T04:14:57;33.47;;;13.47;;
17832;SDS011;9041;49.718;21.798;2024-02-15T04:17:30;18.53;;;8.53;;
17832;SDS011;9041;49.718;21.798;2024-02-15T04:19:57;28.50;;;10.53;;
17832;SDS011;9041;49.718;21.798;2024-02-15T04:22:24;16.27;;;9.13;;
17832;SDS011;9041;49.718;21.798;2024-02-15T04:24:51;22.33;;;9.80;;
17832;SDS011;9041;49.718;21.798;2024-02-15T04:27:19;18.03;;;8.70;;
17832;SDS011;9041;49.718;21.798;2024-02-15T04:29:46;19.93;;;8.97;;
17832;SDS011;9041;49.718;21.798;2024-02-15T04:32:13;16.43;;;7.33;;
17832;SDS011;9041;49.718;21.798;2024-02-15T04:34:40;18.17;;;7.43;;
17832;SDS011;9041;49.718;21.798;2024-02-15T04:37:07;17.67;;;7.87;;
17832;SDS011;9041;49.718;21.798;2024-02-15T04:39:34;17.97;;;8.20;;
17832;SDS011;9041;49.718;21.798;2024-02-15T04:42:01;11.07;;;6.03;;
17832;SDS011;9041;49.718;21.798;2024-02-15T04:44:29;12.40;;;6.27;;
17832;SDS011;9041;49.718;21.798;2024-02-15T04:47:00;16.37;;;6.33;;
17832;SDS011;9041;49.718;21.798;2024-02-15T04:49:26;12.70;;;6.20;;
17832;SDS011;9041;49.718;21.798;2024-02-15T04:51:54;14.60;;;7.23;;
17832;SDS011;9041;49.718;21.798;2024-02-15T04:54:22;17.97;;;7.23;;
17832;SDS011;9041;49.718;21.798;2024-02-15T04:56:48;15.20;;;7.57;;
17832;SDS011;9041;49.718;21.798;2024-02-15T04:59:19;18.67;;;7.43;;
17832;SDS011;9041;49.718;21.798;2024-02-15T05:01:48;21.73;;;8.97;;
17832;SDS011;9041;49.718;21.798;2024-02-15T05:04:15;21.37;;;9.03;;
17832;SDS011;9041;49.718;21.798;2024-02-15T05:06:43;26.07;;;11.00;;
17832;SDS011;9041;49.718;21.798;2024-02-15T05:09:10;33.77;;;11.80;;
17832;SDS011;9041;49.718;21.798;2024-02-15T05:11:38;34.47;;;12.60;;
17832;SDS011;9041;49.718;21.798;2024-02-15T05:14:06;35.83;;;13.13;;
17832;SDS011;9041;49.718;21.798;2024-02-15T05:16:33;37.17;;;13.47;;
17832;SDS011;9041;49.718;21.798;2024-02-15T05:19:03;40.00;;;12.80;;
17832;SDS011;9041;49.718;21.798;2024-02-15T05:21:30;36.53;;;13.10;;
17832;SDS011;9041;49.718;21.798;2024-02-15T05:23:58;35.50;;;12.10;;
17832;SDS011;9041;49.718;21.798;2024-02-15T05:26:25;36.73;;;12.77;;
17832;SDS011;9041;49.718;21.798;2024-02-15T05:28:53;39.43;;;13.23;;
17832;SDS011;9041;49.718;21.798;2024-02-15T05:31:20;42.83;;;14.37;;
17832;SDS011;9041;49.718;21.798;2024-02-15T05:33:50;51.77;;;14.17;;
17832;SDS011;9041;49.718;21.798;2024-02-15T05:36:19;34.50;;;12.70;;
17832;SDS011;9041;49.718;21.798;2024-02-15T05:38:46;31.20;;;12.70;;
17832;SDS011;9041;49.718;21.798;2024-02-15T05:41:22;42.93;;;13.73;;
17832;SDS011;9041;49.718;21.798;2024-02-15T05:43:49;29.70;;;12.83;;
17832;SDS011;9041;49.718;21.798;2024-02-15T05:46:18;34.00;;;12.13;;
17832;SDS011;9041;49.718;21.798;2024-02-15T05:48:46;32.10;;;11.03;;
17832;SDS011;9041;49.718;21.798;2024-02-15T05:51:14;20.73;;;8.10;;
17832;SDS011;9041;49.718;21.798;2024-02-15T05:53:42;15.23;;;6.97;;
17832;SDS011;9041;49.718;21.798;2024-02-15T05:56:09;19.33;;;7.53;;
17832;SDS011;9041;49.718;21.798;2024-02-15T05:58:37;13.27;;;5.90;;
17832;SDS011;9041;49.718;21.798;2024-02-15T06:01:05;15.33;;;6.07;;
17832;SDS011;9041;49.718;21.798;2024-02-15T06:03:32;18.07;;;6.10;;
17832;SDS011;9041;49.718;21.798;2024-02-15T06:06:00;15.97;;;6.80;;
17832;SDS011;9041;49.718;21.798;2024-02-15T06:08:27;13.10;;;6.00;;
17832;SDS011;9041;49.718;21.798;2024-02-15T06:10:56;15.47;;;5.90;;
17832;SDS011;9041;49.718;21.798;2024-02-15T06:13:23;16.13;;;6.17;;
17832;SDS011;9041;49.718;21.798;2024-02-15T06:15:50;13.13;;;5.50;;
17832;SDS011;9041;49.718;21.798;2024-02-15T06:18:19;12.30;;;5.03;;
17832;SDS011;9041;49.718;21.798;2024-02-15T06:20:49;13.23;;;5.37;;
17832;SDS011;9041;49.718;21.798;2024-02-15T06:23:16;13.37;;;5.37;;
17832;SDS011;9041;49.718;21.798;2024-02-15T06:25:42;11.17;;;5.10;;
17832;SDS011;9041;49.718;21.798;2024-02-15T06:28:11;14.63;;;4.67;;
17832;SDS011;9041;49.718;21.798;2024-02-15T06:31:00;13.30;;;4.50;;
17832;SDS011;9041;49.718;21.798;2024-02-15T06:33:44;12.63;;;4.80;;
17832;SDS011;9041;49.718;21.798;2024-02-15T06:36:29;11.53;;;5.00;;
17832;SDS011;9041;49.718;21.798;2024-02-15T06:39:13;8.23;;;4.53;;
17832;SDS011;9041;49.718;21.798;2024-02-15T06:41:57;12.73;;;5.93;;
17832;SDS011;9041;49.718;21.798;2024-02-15T06:44:25;12.67;;;5.47;;
17832;SDS011;9041;49.718;21.798;2024-02-15T06:46:51;11.17;;;5.77;;
17832;SDS011;9041;49.718;21.798;2024-02-15T06:49:18;20.83;;;8.70;;
17832;SDS011;9041;49.718;21.798;2024-02-15T06:51:47;18.07;;;7.03;;
17832;SDS011;9041;49.718;21.798;2024-02-15T06:54:14;13.90;;;6.30;;
17832;SDS011;9041;49.718;21.798;2024-02-15T06:56:41;15.60;;;6.00;;
17832;SDS011;9041;49.718;21.798;2024-02-15T06:59:08;14.70;;;5.40;;
17832;SDS011;9041;49.718;21.798;2024-02-15T07:01:40;13.30;;;5.13;;
17832;SDS011;9041;49.718;21.798;2024-02-15T07:04:07;10.00;;;5.17;;
17832;SDS011;9041;49.718;21.798;2024-02-15T07:06:35;12.73;;;5.53;;
17832;SDS011;9041;49.718;21.798;2024-02-15T07:09:02;12.80;;;5.67;;
17832;SDS011;9041;49.718;21.798;2024-02-15T07:11:30;15.20;;;5.30;;
17832;SDS011;9041;49.718;21.798;2024-02-15T07:13:57;15.20;;;6.90;;
17832;SDS011;9041;49.718;21.798;2024-02-15T07:16:24;18.30;;;6.67;;
17832;SDS011;9041;49.718;21.798;2024-02-15T07:18:52;17.70;;;6.83;;
17832;SDS011;9041;49.718;21.798;2024-02-15T07:21:19;15.97;;;6.13;;
17832;SDS011;9041;49.718;21.798;2024-02-15T07:23:50;12.63;;;4.80;;
17832;SDS011;9041;49.718;21.798;2024-02-15T07:26:17;10.43;;;4.70;;
17832;SDS011;9041;49.718;21.798;2024-02-15T07:28:45;8.97;;;4.30;;
17832;SDS011;9041;49.718;21.798;2024-02-15T07:31:13;12.93;;;4.53;;
17832;SDS011;9041;49.718;21.798;2024-02-15T07:33:40;11.83;;;4.70;;
17832;SDS011;9041;49.718;21.798;2024-02-15T07:36:09;8.07;;;4.07;;
17832;SDS011;9041;49.718;21.798;2024-02-15T07:38:36;10.33;;;4.33;;
17832;SDS011;9041;49.718;21.798;2024-02-15T07:41:02;7.30;;;3.93;;
17832;SDS011;9041;49.718;21.798;2024-02-15T07:43:29;15.93;;;5.70;;
17832;SDS011;9041;49.718;21.798;2024-02-15T07:45:55;9.67;;;4.93;;
17832;SDS011;9041;49.718;21.798;2024-02-15T07:48:22;12.60;;;4.87;;
17832;SDS011;9041;49.718;21.798;2024-02-15T07:50:49;11.97;;;4.90;;
17832;SDS011;9041;49.718;21.798;2024-02-15T07:53:17;13.27;;;5.07;;
17832;SDS011;9041;49.718;21.798;2024-02-15T07:55:44;12.37;;;5.27;;
17832;SDS011;9041;49.718;21.798;2024-02-15T07:58:11;9.50;;;4.50;;
17832;SDS011;9041;49.718;21.798;2024-02-15T08:00:39;10.20;;;4.60;;
17832;SDS011;9041;49.718;21.798;2024-02-15T08:03:05;10.40;;;4.63;;
17832;SDS011;9041;49.718;21.798;2024-02-15T08:05:32;12.17;;;5.30;;
17832;SDS011;9041;49.718;21.798;2024-02-15T08:08:00;8.70;;;4.43;;
17832;SDS011;9041;49.718;21.798;2024-02-15T08:10:30;13.33;;;6.13;;
17832;SDS011;9041;49.718;21.798;2024-02-15T08:12:56;12.43;;;5.40;;
17832;SDS011;9041;49.718;21.798;2024-02-15T08:15:24;9.83;;;4.97;;
17832;SDS011;9041;49.718;21.798;2024-02-15T08:17:52;9.87;;;5.10;;
17832;SDS011;9041;49.718;21.798;2024-02-15T08:20:20;14.13;;;5.27;;
17832;SDS011;9041;49.718;21.798;2024-02-15T08:22:47;14.70;;;5.73;;
17832;SDS011;9041;49.718;21.798;2024-02-15T08:25:14;12.30;;;5.43;;
17832;SDS011;9041;49.718;21.798;2024-02-15T08:27:46;14.57;;;5.00;;
17832;SDS011;9041;49.718;21.798;2024-02-15T08:30:15;13.87;;;5.00;;
17832;SDS011;9041;49.718;21.798;2024-02-15T08:32:42;10.30;;;4.53;;
17832;SDS011;9041;49.718;21.798;2024-02-15T08:35:10;9.90;;;4.83;;
17832;SDS011;9041;49.718;21.798;2024-02-15T08:37:38;13.47;;;5.60;;
17832;SDS011;9041;49.718;21.798;2024-02-15T08:40:07;12.80;;;5.90;;
17832;SDS011;9041;49.718;21.798;2024-02-15T08:42:37;10.47;;;5.37;;
17832;SDS011;9041;49.718;21.798;2024-02-15T08:45:06;14.27;;;5.20;;
17832;SDS011;9041;49.718;21.798;2024-02-15T08:47:34;10.80;;;5.03;;
17832;SDS011;9041;49.718;21.798;2024-02-15T08:50:02;11.87;;;5.17;;
17832;SDS011;9041;49.718;21.798;2024-02-15T08:52:29;9.57;;;5.00;;
17832;SDS011;9041;49.718;21.798;2024-02-15T08:54:56;15.13;;;6.97;;
17832;SDS011;9041;49.718;21.798;2024-02-15T08:57:24;12.63;;;6.27;;
17832;SDS011;9041;49.718;21.798;2024-02-15T08:59:51;12.60;;;6.30;;
17832;SDS011;9041;49.718;21.798;2024-02-15T09:02:20;16.60;;;6.17;;
17832;SDS011;9041;49.718;21.798;2024-02-15T09:04:46;16.57;;;6.60;;
17832;SDS011;9041;49.718;21.798;2024-02-15T09:07:13;16.93;;;6.60;;
17832;SDS011;9041;49.718;21.798;2024-02-15T09:09:39;13.67;;;6.43;;
17832;SDS011;9041;49.718;21.798;2024-02-15T09:12:06;14.47;;;6.30;;
17832;SDS011;9041;49.718;21.798;2024-02-15T09:14:33;13.10;;;6.03;;
17832;SDS011;9041;49.718;21.798;2024-02-15T09:17:01;11.83;;;6.07;;
17832;SDS011;9041;49.718;21.798;2024-02-15T09:19:33;16.43;;;6.67;;
17832;SDS011;9041;49.718;21.798;2024-02-15T09:22:00;13.17;;;6.47;;
17832;SDS011;9041;49.718;21.798;2024-02-15T09:24:29;15.33;;;6.30;;
17832;SDS011;9041;49.718;21.798;2024-02-15T09:26:56;13.87;;;6.30;;
17832;SDS011;9041;49.718;21.798;2024-02-15T09:29:22;13.90;;;6.53;;
17832;SDS011;9041;49.718;21.798;2024-02-15T09:31:49;18.40;;;6.83;;
17832;SDS011;9041;49.718;21.798;2024-02-15T09:34:18;13.17;;;6.40;;
17832;SDS011;9041;49.718;21.798;2024-02-15T09:36:46;13.47;;;6.20;;
17832;SDS011;9041;49.718;21.798;2024-02-15T09:39:12;15.80;;;6.10;;
17832;SDS011;9041;49.718;21.798;2024-02-15T09:41:39;17.50;;;6.67;;
17832;SDS011;9041;49.718;21.798;2024-02-15T09:44:07;19.67;;;8.27;;
17832;SDS011;9041;49.718;21.798;2024-02-15T09:46:34;17.60;;;7.50;;
17832;SDS011;9041;49.718;21.798;2024-02-15T09:49:03;15.23;;;7.37;;
17832;SDS011;9041;49.718;21.798;2024-02-15T09:51:32;15.43;;;7.73;;
17832;SDS011;9041;49.718;21.798;2024-02-15T09:54:01;24.87;;;8.10;;
17832;SDS011;9041;49.718;21.798;2024-02-15T09:56:29;22.07;;;7.83;;
17832;SDS011;9041;49.718;21.798;2024-02-15T09:58:58;41.67;;;16.70;;
17832;SDS011;9041;49.718;21.798;2024-02-15T10:01:25;26.83;;;9.40;;
17832;SDS011;9041;49.718;21.798;2024-02-15T10:03:54;16.83;;;8.10;;
17832;SDS011;9041;49.718;21.798;2024-02-15T10:06:22;16.53;;;7.23;;
17832;SDS011;9041;49.718;21.798;2024-02-15T10:08:49;14.00;;;6.47;;
17832;SDS011;9041;49.718;21.798;2024-02-15T10:11:18;19.77;;;7.10;;
17832;SDS011;9041;49.718;21.798;2024-02-15T10:13:45;14.70;;;7.93;;
17832;SDS011;9041;49.718;21.798;2024-02-15T10:16:15;24.33;;;8.77;;
17832;SDS011;9041;49.718;21.798;2024-02-15T10:18:42;14.67;;;7.70;;
17832;SDS011;9041;49.718;21.798;2024-02-15T10:21:08;12.67;;;6.63;;
17832;SDS011;9041;49.718;21.798;2024-02-15T10:23:36;18.13;;;7.27;;
17832;SDS011;9041;49.718;21.798;2024-02-15T10:26:09;20.43;;;7.87;;
17832;SDS011;9041;49.718;21.798;2024-02-15T10:29:07;16.87;;;6.33;;
17832;SDS011;9041;49.718;21.798;2024-02-15T10:31:35;14.63;;;6.23;;
17832;SDS011;9041;49.718;21.798;2024-02-15T10:34:03;16.47;;;6.63;;
17832;SDS011;9041;49.718;21.798;2024-02-15T10:36:30;13.80;;;6.33;;
17832;SDS011;9041;49.718;21.798;2024-02-15T10:39:10;17.40;;;7.50;;
17832;SDS011;9041;49.718;21.798;2024-02-15T10:41:43;15.80;;;6.60;;
17832;SDS011;9041;49.718;21.798;2024-02-15T10:44:12;17.33;;;7.93;;
17832;SDS011;9041;49.718;21.798;2024-02-15T10:46:41;13.90;;;6.77;;
17832;SDS011;9041;49.718;21.798;2024-02-15T10:49:07;16.63;;;7.00;;
17832;SDS011;9041;49.718;21.798;2024-02-15T10:51:34;15.27;;;6.97;;
17832;SDS011;9041;49.718;21.798;2024-02-15T10:54:02;20.90;;;7.50;;
17832;SDS011;9041;49.718;21.798;2024-02-15T10:56:32;16.70;;;7.67;;
17832;SDS011;9041;49.718;21.798;2024-02-15T10:59:05;19.73;;;8.67;;
17832;SDS011;9041;49.718;21.798;2024-02-15T11:01:38;19.57;;;9.00;;
17832;SDS011;9041;49.718;21.798;2024-02-15T11:04:07;18.37;;;8.93;;
17832;SDS011;9041;49.718;21.798;2024-02-15T11:06:35;12.57;;;7.03;;
17832;SDS011;9041;49.718;21.798;2024-02-15T11:09:02;21.13;;;9.10;;
17832;SDS011;9041;49.718;21.798;2024-02-15T11:11:31;18.57;;;8.33;;
17832;SDS011;9041;49.718;21.798;2024-02-15T11:16:51;13.97;;;7.13;;
17832;SDS011;9041;49.718;21.798;2024-02-15T11:22:11;22.60;;;9.03;;
17832;SDS011;9041;49.718;21.798;2024-02-15T11:24:45;21.43;;;10.93;;
17832;SDS011;9041;49.718;21.798;2024-02-15T11:27:14;16.13;;;8.33;;
17832;SDS011;9041;49.718;21.798;2024-02-15T11:29:52;20.13;;;8.13;;
17832;SDS011;9041;49.718;21.798;2024-02-15T11:32:38;18.03;;;7.80;;
17832;SDS011;9041;49.718;21.798;2024-02-15T11:35:09;19.85;;;7.88;;
17832;SDS011;9041;49.718;21.798;2024-02-15T11:37:52;18.33;;;7.63;;
17832;SDS011;9041;49.718;21.798;2024-02-15T11:40:19;15.97;;;6.80;;
17832;SDS011;9041;49.718;21.798;2024-02-15T11:42:48;14.07;;;7.00;;
17832;SDS011;9041;49.718;21.798;2024-02-15T11:45:17;13.32;;;6.97;;
17832;SDS011;9041;49.718;21.798;2024-02-15T11:47:47;18.77;;;7.47;;
17832;SDS011;9041;49.718;21.798;2024-02-15T11:50:15;16.63;;;7.07;;
17832;SDS011;9041;49.718;21.798;2024-02-15T11:52:42;18.48;;;7.70;;
17832;SDS011;9041;49.718;21.798;2024-02-15T11:55:10;19.48;;;7.15;;
17832;SDS011;9041;49.718;21.798;2024-02-15T11:57:38;18.75;;;8.05;;
17832;SDS011;9041;49.718;21.798;2024-02-15T12:03:14;17.77;;;7.65;;
17832;SDS011;9041;49.718;21.798;2024-02-15T12:05:58;17.80;;;7.75;;
17832;SDS011;9041;49.718;21.798;2024-02-15T12:08:43;23.77;;;8.27;;
17832;SDS011;9041;49.718;21.798;2024-02-15T12:11:28;18.80;;;8.57;;
17832;SDS011;9041;49.718;21.798;2024-02-15T12:14:12;19.48;;;8.10;;
17832;SDS011;9041;49.718;21.798;2024-02-15T12:17:01;19.25;;;8.55;;
17832;SDS011;9041;49.718;21.798;2024-02-15T12:19:47;23.23;;;9.68;;
17832;SDS011;9041;49.718;21.798;2024-02-15T12:22:14;22.17;;;9.40;;
17832;SDS011;9041;49.718;21.798;2024-02-15T12:24:42;16.58;;;8.23;;
17832;SDS011;9041;49.718;21.798;2024-02-15T12:27:09;22.20;;;8.48;;
17832;SDS011;9041;49.718;21.798;2024-02-15T12:29:35;22.58;;;9.15;;
17832;SDS011;9041;49.718;21.798;2024-02-15T12:32:04;25.08;;;9.02;;
17832;SDS011;9041;49.718;21.798;2024-02-15T12:34:30;20.58;;;9.25;;
17832;SDS011;9041;49.718;21.798;2024-02-15T12:37:06;15.88;;;8.38;;
17832;SDS011;9041;49.718;21.798;2024-02-15T12:39:36;23.67;;;9.75;;
17832;SDS011;9041;49.718;21.798;2024-02-15T12:42:10;20.80;;;9.35;;
17832;SDS011;9041;49.718;21.798;2024-02-15T12:44:41;20.85;;;9.02;;
17832;SDS011;9041;49.718;21.798;2024-02-15T12:47:18;18.60;;;8.80;;
17832;SDS011;9041;49.718;21.798;2024-02-15T12:49:48;20.40;;;8.00;;
17832;SDS011;9041;49.718;21.798;2024-02-15T12:52:36;19.30;;;8.38;;
17832;SDS011;9041;49.718;21.798;2024-02-15T12:55:10;20.02;;;8.88;;
17832;SDS011;9041;49.718;21.798;2024-02-15T12:57:37;18.30;;;7.82;;
17832;SDS011;9041;49.718;21.798;2024-02-15T13:00:07;24.63;;;9.20;;
17832;SDS011;9041;49.718;21.798;2024-02-15T13:02:44;21.40;;;8.98;;
17832;SDS011;9041;49.718;21.798;2024-02-15T13:05:12;22.15;;;8.50;;
17832;SDS011;9041;49.718;21.798;2024-02-15T13:07:39;15.60;;;7.13;;
17832;SDS011;9041;49.718;21.798;2024-02-15T13:10:06;25.42;;;10.13;;
17832;SDS011;9041;49.718;21.798;2024-02-15T13:12:34;23.33;;;9.07;;
17832;SDS011;9041;49.718;21.798;2024-02-15T13:15:02;13.73;;;5.85;;
17832;SDS011;9041;49.718;21.798;2024-02-15T13:17:30;15.70;;;5.90;;
17832;SDS011;9041;49.718;21.798;2024-02-15T13:20:00;14.73;;;5.45;;
17832;SDS011;9041;49.718;21.798;2024-02-15T13:22:31;9.50;;;4.78;;
17832;SDS011;9041;49.718;21.798;2024-02-15T13:24:58;15.02;;;6.82;;
17832;SDS011;9041;49.718;21.798;2024-02-15T13:27:25;9.88;;;4.90;;
17832;SDS011;9041;49.718;21.798;2024-02-15T13:29:52;15.32;;;5.68;;
17832;SDS011;9041;49.718;21.798;2024-02-15T13:32:20;12.00;;;5.20;;
17832;SDS011;9041;49.718;21.798;2024-02-15T13:34:47;13.80;;;5.43;;
17832;SDS011;9041;49.718;21.798;2024-02-15T13:37:18;12.73;;;5.72;;
17832;SDS011;9041;49.718;21.798;2024-02-15T13:39:46;14.35;;;6.00;;
17832;SDS011;9041;49.718;21.798;2024-02-15T13:42:13;11.98;;;5.30;;
17832;SDS011;9041;49.718;21.798;2024-02-15T13:44:40;15.52;;;6.13;;
17832;SDS011;9041;49.718;21.798;2024-02-15T13:47:07;15.15;;;6.43;;
17832;SDS011;9041;49.718;21.798;2024-02-15T13:49:33;18.42;;;7.15;;
17832;SDS011;9041;49.718;21.798;2024-02-15T13:52:00;18.25;;;7.05;;
17832;SDS011;9041;49.718;21.798;2024-02-15T13:54:29;15.68;;;6.18;;
17832;SDS011;9041;49.718;21.798;2024-02-15T13:56:57;17.83;;;7.22;;
17832;SDS011;9041;49.718;21.798;2024-02-15T13:59:25;15.63;;;6.57;;
17832;SDS011;9041;49.718;21.798;2024-02-15T14:01:52;13.55;;;5.38;;
17832;SDS011;9041;49.718;21.798;2024-02-15T14:04:18;11.98;;;5.05;;
17832;SDS011;9041;49.718;21.798;2024-02-15T14:06:45;11.23;;;5.15;;
17832;SDS011;9041;49.718;21.798;2024-02-15T14:09:13;15.70;;;6.22;;
17832;SDS011;9041;49.718;21.798;2024-02-15T14:12:02;16.48;;;7.03;;
17832;SDS011;9041;49.718;21.798;2024-02-15T14:14:30;17.17;;;6.38;;
17832;SDS011;9041;49.718;21.798;2024-02-15T14:16:57;11.55;;;5.80;;
17832;SDS011;9041;49.718;21.798;2024-02-15T14:19:24;17.77;;;5.63;;
17832;SDS011;9041;49.718;21.798;2024-02-15T14:21:51;13.13;;;5.88;;
17832;SDS011;9041;49.718;21.798;2024-02-15T14:24:19;13.73;;;6.53;;
17832;SDS011;9041;49.718;21.798;2024-02-15T14:26:48;10.85;;;4.85;;
17832;SDS011;9041;49.718;21.798;2024-02-15T14:29:16;15.40;;;5.22;;
17832;SDS011;9041;49.718;21.798;2024-02-15T14:31:45;6.82;;;3.17;;
17832;SDS011;9041;49.718;21.798;2024-02-15T14:34:29;9.98;;;3.60;;
17832;SDS011;9041;49.718;21.798;2024-02-15T14:36:55;8.30;;;3.92;;
17832;SDS011;9041;49.718;21.798;2024-02-15T14:39:25;11.48;;;3.83;;
17832;SDS011;9041;49.718;21.798;2024-02-15T14:41:51;6.68;;;3.20;;
17832;SDS011;9041;49.718;21.798;2024-02-15T14:44:20;8.18;;;3.20;;
17832;SDS011;9041;49.718;21.798;2024-02-15T14:46:48;9.88;;;3.13;;
17832;SDS011;9041;49.718;21.798;2024-02-15T14:49:15;9.85;;;3.72;;
17832;SDS011;9041;49.718;21.798;2024-02-15T14:51:43;6.63;;;4.13;;